sensor_id;sensor_type;location;lat;lon;timestamp;temperature;humidity
72936;DHT22;61085;48.804;9.228;2023-05-16T10:49:23;13.90;99.90
72936;DHT22;61085;48.804;9.228;2023-05-16T10:52:11;14.00;99.90
72936;DHT22;61085;48.804;9.228;2023-05-16T10:54:49;13.90;99.90
72936;DHT22;61085;48.804;9.228;2023-05-16T10:57:22;13.80;99.90
72936;DHT22;61085;48.804;9.228;2023-05-16T10:59:49;14.00;99.90
72936;DHT22;61085;48.804;9.228;2023-05-16T11:02:44;13.80;99.90
72936;DHT22;61085;48.804;9.228;2023-05-16T11:05:16;13.80;99.90
72936;DHT22;61085;48.804;9.228;2023-05-16T11:07:43;13.70;99.90
72936;DHT22;61085;48.804;9.228;2023-05-16T11:10:13;13.70;99.90
72936;DHT22;61085;48.804;9.228;2023-05-16T11:12:45;13.60;99.90
72936;DHT22;61085;48.804;9.228;2023-05-16T11:15:31;13.30;99.90
72936;DHT22;61085;48.804;9.228;2023-05-16T11:18:23;13.20;99.90
72936;DHT22;61085;48.804;9.228;2023-05-16T11:20:50;13.30;99.90
72936;DHT22;61085;48.804;9.228;2023-05-16T11:25:44;13.10;99.90
72936;DHT22;61085;48.804;9.228;2023-05-16T11:28:13;13.20;99.90
72936;DHT22;61085;48.804;9.228;2023-05-16T11:30:43;13.30;99.90
72936;DHT22;61085;48.804;9.228;2023-05-16T11:33:10;13.20;99.90
72936;DHT22;61085;48.804;9.228;2023-05-16T11:35:37;13.20;99.90
72936;DHT22;61085;48.804;9.228;2023-05-16T11:38:03;13.20;99.90
72936;DHT22;61085;48.804;9.228;2023-05-16T11:40:29;13.20;99.90
72936;DHT22;61085;48.804;9.228;2023-05-16T11:42:59;13.20;99.90
72936;DHT22;61085;48.804;9.228;2023-05-16T11:45:27;13.10;99.90
72936;DHT22;61085;48.804;9.228;2023-05-16T11:47:53;13.20;99.90
72936;DHT22;61085;48.804;9.228;2023-05-16T11:50:20;13.20;99.90
72936;DHT22;61085;48.804;9.228;2023-05-16T11:52:49;13.30;99.90
72936;DHT22;61085;48.804;9.228;2023-05-16T11:55:29;13.30;99.90
72936;DHT22;61085;48.804;9.228;2023-05-16T11:57:57;13.00;99.90
72936;DHT22;61085;48.804;9.228;2023-05-16T13:09:09;13.50;99.90
72936;DHT22;61085;48.804;9.228;2023-05-16T13:11:35;13.50;99.90
72936;DHT22;61085;48.804;9.228;2023-05-16T13:14:01;13.50;99.90
72936;DHT22;61085;48.804;9.228;2023-05-16T13:16:27;13.40;99.90
72936;DHT22;61085;48.804;9.228;2023-05-16T13:18:53;13.30;99.90
72936;DHT22;61085;48.804;9.228;2023-05-16T13:21:18;13.20;99.90
72936;DHT22;61085;48.804;9.228;2023-05-16T13:23:44;13.30;99.90
72936;DHT22;61085;48.804;9.228;2023-05-16T13:26:09;13.50;99.90
72936;DHT22;61085;48.804;9.228;2023-05-16T13:28:35;13.40;99.90
72936;DHT22;61085;48.804;9.228;2023-05-16T13:31:01;13.40;99.90
72936;DHT22;61085;48.804;9.228;2023-05-16T13:33:27;13.50;99.90
72936;DHT22;61085;48.804;9.228;2023-05-16T13:35:53;13.60;99.90
72936;DHT22;61085;48.804;9.228;2023-05-16T13:38:19;13.60;99.90
72936;DHT22;61085;48.804;9.228;2023-05-16T13:40:45;13.60;99.90
72936;DHT22;61085;48.804;9.228;2023-05-16T13:43:10;13.70;99.90
72936;DHT22;61085;48.804;9.228;2023-05-16T13:45:39;13.80;99.90
72936;DHT22;61085;48.804;9.228;2023-05-16T13:48:05;13.50;99.90
72936;DHT22;61085;48.804;9.228;2023-05-16T13:50:31;13.40;99.90
72936;DHT22;61085;48.804;9.228;2023-05-16T13:52:59;13.40;99.90
72936;DHT22;61085;48.804;9.228;2023-05-16T13:55:25;13.40;99.90
72936;DHT22;61085;48.804;9.228;2023-05-16T13:57:51;13.40;99.90
72936;DHT22;61085;48.804;9.228;2023-05-16T14:00:16;13.30;99.90
72936;DHT22;61085;48.804;9.228;2023-05-16T14:02:43;13.30;99.90
72936;DHT22;61085;48.804;9.228;2023-05-16T14:05:09;13.00;99.90
72936;DHT22;61085;48.804;9.228;2023-05-16T14:07:35;13.20;99.90
72936;DHT22;61085;48.804;9.228;2023-05-16T14:10:00;13.10;99.90
72936;DHT22;61085;48.804;9.228;2023-05-16T14:12:26;13.00;99.90
72936;DHT22;61085;48.804;9.228;2023-05-16T14:14:52;13.00;99.90
72936;DHT22;61085;48.804;9.228;2023-05-16T14:17:19;13.00;99.90
72936;DHT22;61085;48.804;9.228;2023-05-16T14:19:44;13.10;99.90
72936;DHT22;61085;48.804;9.228;2023-05-16T14:22:10;13.30;99.90
72936;DHT22;61085;48.804;9.228;2023-05-16T14:24:35;13.40;99.90
72936;DHT22;61085;48.804;9.228;2023-05-16T14:27:01;13.20;99.90
72936;DHT22;61085;48.804;9.228;2023-05-16T14:29:27;13.30;99.90
72936;DHT22;61085;48.804;9.228;2023-05-16T14:31:52;13.40;99.90
72936;DHT22;61085;48.804;9.228;2023-05-16T14:34:18;13.30;99.90
72936;DHT22;61085;48.804;9.228;2023-05-16T14:36:44;13.40;99.90
72936;DHT22;61085;48.804;9.228;2023-05-16T14:39:10;13.50;99.90
72936;DHT22;61085;48.804;9.228;2023-05-16T14:41:36;13.40;99.90
72936;DHT22;61085;48.804;9.228;2023-05-16T14:44:02;13.50;99.90
72936;DHT22;61085;48.804;9.228;2023-05-16T14:46:27;13.60;99.90
72936;DHT22;61085;48.804;9.228;2023-05-16T14:48:53;13.60;99.90
72936;DHT22;61085;48.804;9.228;2023-05-16T14:51:18;13.70;99.90
72936;DHT22;61085;48.804;9.228;2023-05-16T14:53:44;13.70;99.90
72936;DHT22;61085;48.804;9.228;2023-05-16T14:56:10;13.80;99.90
72936;DHT22;61085;48.804;9.228;2023-05-16T14:58:35;13.90;99.90
72936;DHT22;61085;48.804;9.228;2023-05-16T15:01:01;13.90;99.90
72936;DHT22;61085;48.804;9.228;2023-05-16T15:03:26;13.80;99.90
72936;DHT22;61085;48.804;9.228;2023-05-16T15:05:52;13.80;99.90
72936;DHT22;61085;48.804;9.228;2023-05-16T15:08:18;13.90;99.90
72936;DHT22;61085;48.804;9.228;2023-05-16T15:10:45;13.60;99.90
72936;DHT22;61085;48.804;9.228;2023-05-16T15:13:10;13.80;99.90
72936;DHT22;61085;48.804;9.228;2023-05-16T15:15:36;13.70;99.90
72936;DHT22;61085;48.804;9.228;2023-05-16T15:18:03;13.80;99.90
72936;DHT22;61085;48.804;9.228;2023-05-16T15:20:28;13.80;99.90
72936;DHT22;61085;48.804;9.228;2023-05-16T15:22:54;13.80;99.90
72936;DHT22;61085;48.804;9.228;2023-05-16T15:25:20;13.80;99.90
72936;DHT22;61085;48.804;9.228;2023-05-16T15:27:46;14.00;99.90
72936;DHT22;61085;48.804;9.228;2023-05-16T15:30:11;13.80;99.90
72936;DHT22;61085;48.804;9.228;2023-05-16T15:32:37;14.00;99.90
72936;DHT22;61085;48.804;9.228;2023-05-16T15:35:03;14.10;99.90
72936;DHT22;61085;48.804;9.228;2023-05-16T15:37:29;14.10;99.90
72936;DHT22;61085;48.804;9.228;2023-05-16T15:39:55;14.30;99.90
72936;DHT22;61085;48.804;9.228;2023-05-16T15:42:20;14.40;99.90
72936;DHT22;61085;48.804;9.228;2023-05-16T15:44:46;14.50;99.90
72936;DHT22;61085;48.804;9.228;2023-05-16T15:47:12;14.50;99.90
72936;DHT22;61085;48.804;9.228;2023-05-16T15:49:37;14.50;99.90
72936;DHT22;61085;48.804;9.228;2023-05-16T15:52:03;14.30;99.90
72936;DHT22;61085;48.804;9.228;2023-05-16T15:54:29;14.30;99.90
72936;DHT22;61085;48.804;9.228;2023-05-16T15:56:55;14.30;99.90
72936;DHT22;61085;48.804;9.228;2023-05-16T15:59:20;14.20;99.90
72936;DHT22;61085;48.804;9.228;2023-05-16T16:01:46;14.20;99.90
72936;DHT22;61085;48.804;9.228;2023-05-16T16:04:11;14.20;99.90
72936;DHT22;61085;48.804;9.228;2023-05-16T16:06:37;14.20;99.90
72936;DHT22;61085;48.804;9.228;2023-05-16T16:09:03;14.20;99.90
72936;DHT22;61085;48.804;9.228;2023-05-16T16:11:29;14.20;99.90
72936;DHT22;61085;48.804;9.228;2023-05-16T16:13:55;14.10;99.90
72936;DHT22;61085;48.804;9.228;2023-05-16T16:16:20;14.10;99.90
72936;DHT22;61085;48.804;9.228;2023-05-16T16:18:46;14.00;99.90
72936;DHT22;61085;48.804;9.228;2023-05-16T16:21:12;14.00;99.90
72936;DHT22;61085;48.804;9.228;2023-05-16T16:23:38;14.00;99.90
72936;DHT22;61085;48.804;9.228;2023-05-16T16:26:04;14.00;99.90
72936;DHT22;61085;48.804;9.228;2023-05-16T16:28:30;13.90;99.90
72936;DHT22;61085;48.804;9.228;2023-05-16T16:30:56;13.90;99.90
72936;DHT22;61085;48.804;9.228;2023-05-16T16:33:21;13.90;99.90
72936;DHT22;61085;48.804;9.228;2023-05-16T16:35:47;13.90;99.90
72936;DHT22;61085;48.804;9.228;2023-05-16T16:38:12;13.90;99.90
72936;DHT22;61085;48.804;9.228;2023-05-16T16:40:38;14.00;99.90
72936;DHT22;61085;48.804;9.228;2023-05-16T16:43:05;14.10;99.90
72936;DHT22;61085;48.804;9.228;2023-05-16T16:45:31;14.00;99.90
72936;DHT22;61085;48.804;9.228;2023-05-16T16:47:57;14.00;99.90
72936;DHT22;61085;48.804;9.228;2023-05-16T16:50:22;14.10;99.90
72936;DHT22;61085;48.804;9.228;2023-05-16T16:52:48;14.10;99.90
72936;DHT22;61085;48.804;9.228;2023-05-16T16:55:14;14.10;99.90
72936;DHT22;61085;48.804;9.228;2023-05-16T16:57:42;14.20;99.90
72936;DHT22;61085;48.804;9.228;2023-05-16T17:00:11;14.30;99.90
72936;DHT22;61085;48.804;9.228;2023-05-16T17:02:37;14.30;99.90
72936;DHT22;61085;48.804;9.228;2023-05-16T17:05:05;14.30;99.90
72936;DHT22;61085;48.804;9.228;2023-05-16T17:07:31;14.30;99.90
72936;DHT22;61085;48.804;9.228;2023-05-16T17:09:57;14.10;99.90
72936;DHT22;61085;48.804;9.228;2023-05-16T17:12:23;14.10;99.90
72936;DHT22;61085;48.804;9.228;2023-05-16T17:14:52;14.20;99.90
72936;DHT22;61085;48.804;9.228;2023-05-16T17:17:18;14.00;99.90
72936;DHT22;61085;48.804;9.228;2023-05-16T17:19:45;14.10;99.90
72936;DHT22;61085;48.804;9.228;2023-05-16T17:22:11;14.10;99.90
72936;DHT22;61085;48.804;9.228;2023-05-16T17:24:37;14.10;99.90
72936;DHT22;61085;48.804;9.228;2023-05-16T17:27:03;14.10;99.90
72936;DHT22;61085;48.804;9.228;2023-05-16T17:29:29;14.20;99.90
72936;DHT22;61085;48.804;9.228;2023-05-16T17:31:55;14.20;99.90
72936;DHT22;61085;48.804;9.228;2023-05-16T17:34:21;14.20;99.80
72936;DHT22;61085;48.804;9.228;2023-05-16T17:36:48;14.20;99.90
72936;DHT22;61085;48.804;9.228;2023-05-16T17:39:13;14.20;99.10
72936;DHT22;61085;48.804;9.228;2023-05-16T17:41:39;14.10;99.10
72936;DHT22;61085;48.804;9.228;2023-05-16T17:44:05;14.20;99.40
72936;DHT22;61085;48.804;9.228;2023-05-16T17:46:32;14.20;99.40
72936;DHT22;61085;48.804;9.228;2023-05-16T17:48:58;14.30;98.80
72936;DHT22;61085;48.804;9.228;2023-05-16T17:51:24;14.40;99.00
72936;DHT22;61085;48.804;9.228;2023-05-16T17:53:50;14.30;98.80
72936;DHT22;61085;48.804;9.228;2023-05-16T17:56:17;14.30;98.90
72936;DHT22;61085;48.804;9.228;2023-05-16T17:58:43;14.30;98.20
72936;DHT22;61085;48.804;9.228;2023-05-16T18:01:10;14.30;96.00
72936;DHT22;61085;48.804;9.228;2023-05-16T18:03:37;14.30;96.20
72936;DHT22;61085;48.804;9.228;2023-05-16T18:06:04;14.20;96.80
72936;DHT22;61085;48.804;9.228;2023-05-16T18:08:29;14.10;96.30
72936;DHT22;61085;48.804;9.228;2023-05-16T18:10:55;14.20;96.20
72936;DHT22;61085;48.804;9.228;2023-05-16T18:13:21;14.20;96.50
72936;DHT22;61085;48.804;9.228;2023-05-16T18:15:48;14.00;96.60
72936;DHT22;61085;48.804;9.228;2023-05-16T18:18:13;14.00;95.80
72936;DHT22;61085;48.804;9.228;2023-05-16T18:20:39;14.00;96.00
72936;DHT22;61085;48.804;9.228;2023-05-16T18:23:05;14.00;96.00
72936;DHT22;61085;48.804;9.228;2023-05-16T18:25:32;14.10;94.60
72936;DHT22;61085;48.804;9.228;2023-05-16T18:27:58;13.90;94.10
72936;DHT22;61085;48.804;9.228;2023-05-16T18:30:23;13.90;94.20
72936;DHT22;61085;48.804;9.228;2023-05-16T18:32:49;13.90;93.50
72936;DHT22;61085;48.804;9.228;2023-05-16T18:35:14;13.80;92.50
72936;DHT22;61085;48.804;9.228;2023-05-16T18:37:41;13.80;92.20
72936;DHT22;61085;48.804;9.228;2023-05-16T18:40:07;13.70;92.30
72936;DHT22;61085;48.804;9.228;2023-05-16T18:42:33;13.70;92.00
72936;DHT22;61085;48.804;9.228;2023-05-16T18:44:58;13.70;92.40
72936;DHT22;61085;48.804;9.228;2023-05-16T18:47:24;13.70;91.90
72936;DHT22;61085;48.804;9.228;2023-05-16T18:49:49;13.60;91.70
72936;DHT22;61085;48.804;9.228;2023-05-16T18:52:15;13.70;92.80
72936;DHT22;61085;48.804;9.228;2023-05-16T18:54:41;13.60;92.60
72936;DHT22;61085;48.804;9.228;2023-05-16T18:57:06;13.60;92.80
72936;DHT22;61085;48.804;9.228;2023-05-16T18:59:32;13.50;92.10
72936;DHT22;61085;48.804;9.228;2023-05-16T19:01:58;13.80;92.10
72936;DHT22;61085;48.804;9.228;2023-05-16T19:04:24;13.40;92.40
72936;DHT22;61085;48.804;9.228;2023-05-16T19:06:50;13.40;92.80
72936;DHT22;61085;48.804;9.228;2023-05-16T19:09:19;13.40;94.60
72936;DHT22;61085;48.804;9.228;2023-05-16T19:11:45;13.40;92.50
72936;DHT22;61085;48.804;9.228;2023-05-16T19:14:10;13.30;92.40
72936;DHT22;61085;48.804;9.228;2023-05-16T19:16:36;13.20;92.60
72936;DHT22;61085;48.804;9.228;2023-05-16T19:19:02;13.20;92.70
72936;DHT22;61085;48.804;9.228;2023-05-16T19:21:28;13.20;93.10
72936;DHT22;61085;48.804;9.228;2023-05-16T19:23:54;13.10;92.80
72936;DHT22;61085;48.804;9.228;2023-05-16T19:26:21;13.10;92.50
72936;DHT22;61085;48.804;9.228;2023-05-16T19:28:47;12.90;92.50
72936;DHT22;61085;48.804;9.228;2023-05-16T19:31:12;12.90;92.80
72936;DHT22;61085;48.804;9.228;2023-05-16T19:33:38;12.90;92.90
72936;DHT22;61085;48.804;9.228;2023-05-16T19:36:04;12.90;92.80
72936;DHT22;61085;48.804;9.228;2023-05-16T19:38:30;12.80;92.60
72936;DHT22;61085;48.804;9.228;2023-05-16T19:40:56;13.10;92.80
72936;DHT22;61085;48.804;9.228;2023-05-16T19:43:22;12.70;93.20
72936;DHT22;61085;48.804;9.228;2023-05-16T19:45:48;12.70;93.40
72936;DHT22;61085;48.804;9.228;2023-05-16T19:48:14;12.60;92.60
72936;DHT22;61085;48.804;9.228;2023-05-16T19:50:40;12.60;93.00
72936;DHT22;61085;48.804;9.228;2023-05-16T19:53:06;12.60;92.90
72936;DHT22;61085;48.804;9.228;2023-05-16T19:55:32;12.50;93.20
72936;DHT22;61085;48.804;9.228;2023-05-16T19:58:00;12.50;93.00
72936;DHT22;61085;48.804;9.228;2023-05-16T20:00:25;12.50;93.20
72936;DHT22;61085;48.804;9.228;2023-05-16T20:02:51;12.60;93.20
72936;DHT22;61085;48.804;9.228;2023-05-16T20:05:17;12.40;92.70
72936;DHT22;61085;48.804;9.228;2023-05-16T20:07:50;12.30;92.90
72936;DHT22;61085;48.804;9.228;2023-05-16T20:10:17;12.40;93.20
72936;DHT22;61085;48.804;9.228;2023-05-16T20:12:43;12.30;93.00
72936;DHT22;61085;48.804;9.228;2023-05-16T20:15:09;12.40;93.20
72936;DHT22;61085;48.804;9.228;2023-05-16T20:17:36;12.30;93.10
72936;DHT22;61085;48.804;9.228;2023-05-16T20:20:03;12.30;93.70
72936;DHT22;61085;48.804;9.228;2023-05-16T20:22:29;12.30;93.70
72936;DHT22;61085;48.804;9.228;2023-05-16T20:24:54;12.30;94.00
72936;DHT22;61085;48.804;9.228;2023-05-16T20:27:20;12.30;93.80
72936;DHT22;61085;48.804;9.228;2023-05-16T20:29:47;12.40;93.90
72936;DHT22;61085;48.804;9.228;2023-05-16T20:32:19;12.30;93.90
72936;DHT22;61085;48.804;9.228;2023-05-16T20:34:45;12.30;94.00
72936;DHT22;61085;48.804;9.228;2023-05-16T20:37:11;12.20;94.00
72936;DHT22;61085;48.804;9.228;2023-05-16T20:39:37;12.20;93.90
72936;DHT22;61085;48.804;9.228;2023-05-16T20:42:04;12.30;94.00
72936;DHT22;61085;48.804;9.228;2023-05-16T20:44:38;12.20;95.10
72936;DHT22;61085;48.804;9.228;2023-05-16T20:47:05;12.20;94.20
72936;DHT22;61085;48.804;9.228;2023-05-16T20:49:31;12.20;94.80
72936;DHT22;61085;48.804;9.228;2023-05-16T20:51:57;12.20;94.60
72936;DHT22;61085;48.804;9.228;2023-05-16T20:54:23;12.20;94.00
72936;DHT22;61085;48.804;9.228;2023-05-16T20:56:48;12.20;94.60
72936;DHT22;61085;48.804;9.228;2023-05-16T20:59:14;12.20;94.70
72936;DHT22;61085;48.804;9.228;2023-05-16T21:01:40;12.20;94.80
72936;DHT22;61085;48.804;9.228;2023-05-16T21:04:05;12.20;94.70
72936;DHT22;61085;48.804;9.228;2023-05-16T21:06:31;12.10;95.20
72936;DHT22;61085;48.804;9.228;2023-05-16T21:08:56;12.10;94.50
72936;DHT22;61085;48.804;9.228;2023-05-16T21:11:22;12.10;95.00
72936;DHT22;61085;48.804;9.228;2023-05-16T21:13:48;12.10;95.10
72936;DHT22;61085;48.804;9.228;2023-05-16T21:16:14;12.10;94.60
72936;DHT22;61085;48.804;9.228;2023-05-16T21:18:39;12.10;94.50
72936;DHT22;61085;48.804;9.228;2023-05-16T21:21:05;12.10;94.60
72936;DHT22;61085;48.804;9.228;2023-05-16T21:23:31;12.00;94.70
72936;DHT22;61085;48.804;9.228;2023-05-16T21:25:57;12.00;95.00
72936;DHT22;61085;48.804;9.228;2023-05-16T21:28:22;12.00;94.20
72936;DHT22;61085;48.804;9.228;2023-05-16T21:30:50;12.00;94.00
72936;DHT22;61085;48.804;9.228;2023-05-16T21:33:16;11.90;94.00
72936;DHT22;61085;48.804;9.228;2023-05-16T21:35:42;11.90;94.20
72936;DHT22;61085;48.804;9.228;2023-05-16T21:38:07;12.00;94.90
72936;DHT22;61085;48.804;9.228;2023-05-16T21:40:33;12.00;94.30
72936;DHT22;61085;48.804;9.228;2023-05-16T21:42:59;12.00;94.20
72936;DHT22;61085;48.804;9.228;2023-05-16T21:45:24;12.00;94.70
72936;DHT22;61085;48.804;9.228;2023-05-16T21:47:50;11.90;94.40
72936;DHT22;61085;48.804;9.228;2023-05-16T21:50:15;11.90;95.30
72936;DHT22;61085;48.804;9.228;2023-05-16T21:52:42;11.80;95.30
72936;DHT22;61085;48.804;9.228;2023-05-16T21:55:08;11.80;94.60
72936;DHT22;61085;48.804;9.228;2023-05-16T21:57:34;11.80;94.40
72936;DHT22;61085;48.804;9.228;2023-05-16T22:00:00;11.70;94.50
72936;DHT22;61085;48.804;9.228;2023-05-16T22:02:28;11.70;95.00
72936;DHT22;61085;48.804;9.228;2023-05-16T22:04:54;11.60;94.70
72936;DHT22;61085;48.804;9.228;2023-05-16T22:07:19;11.60;95.10
72936;DHT22;61085;48.804;9.228;2023-05-16T22:09:45;11.50;95.80
72936;DHT22;61085;48.804;9.228;2023-05-16T22:12:15;11.50;95.80
72936;DHT22;61085;48.804;9.228;2023-05-16T22:14:41;11.50;95.70
72936;DHT22;61085;48.804;9.228;2023-05-16T22:17:06;11.50;96.50
72936;DHT22;61085;48.804;9.228;2023-05-16T22:19:32;11.40;96.30
72936;DHT22;61085;48.804;9.228;2023-05-16T22:21:57;11.30;96.00
72936;DHT22;61085;48.804;9.228;2023-05-16T22:24:23;11.30;96.40
72936;DHT22;61085;48.804;9.228;2023-05-16T22:26:49;11.20;96.10
72936;DHT22;61085;48.804;9.228;2023-05-16T22:29:14;11.20;96.70
72936;DHT22;61085;48.804;9.228;2023-05-16T22:31:40;11.20;97.00
72936;DHT22;61085;48.804;9.228;2023-05-16T22:34:05;11.20;96.60
72936;DHT22;61085;48.804;9.228;2023-05-16T22:36:31;11.20;96.70
72936;DHT22;61085;48.804;9.228;2023-05-16T22:38:56;11.20;97.40
72936;DHT22;61085;48.804;9.228;2023-05-16T22:41:22;11.10;97.20
72936;DHT22;61085;48.804;9.228;2023-05-16T22:43:48;11.00;97.30
72936;DHT22;61085;48.804;9.228;2023-05-16T22:46:13;11.00;97.50
72936;DHT22;61085;48.804;9.228;2023-05-16T22:48:39;11.00;97.60
72936;DHT22;61085;48.804;9.228;2023-05-16T22:51:05;11.00;98.20
72936;DHT22;61085;48.804;9.228;2023-05-16T22:53:31;11.10;97.80
72936;DHT22;61085;48.804;9.228;2023-05-16T22:55:56;11.00;97.40
72936;DHT22;61085;48.804;9.228;2023-05-16T22:58:22;10.80;97.70
72936;DHT22;61085;48.804;9.228;2023-05-16T23:00:47;10.80;98.20
72936;DHT22;61085;48.804;9.228;2023-05-16T23:03:13;10.70;98.40
72936;DHT22;61085;48.804;9.228;2023-05-16T23:05:39;10.70;99.20
72936;DHT22;61085;48.804;9.228;2023-05-16T23:08:04;10.70;99.10
72936;DHT22;61085;48.804;9.228;2023-05-16T23:10:30;10.70;99.30
72936;DHT22;61085;48.804;9.228;2023-05-16T23:12:56;10.60;98.90
72936;DHT22;61085;48.804;9.228;2023-05-16T23:15:22;10.60;99.00
72936;DHT22;61085;48.804;9.228;2023-05-16T23:17:48;10.50;99.00
72936;DHT22;61085;48.804;9.228;2023-05-16T23:20:13;10.60;99.60
72936;DHT22;61085;48.804;9.228;2023-05-16T23:22:39;10.50;99.00
72936;DHT22;61085;48.804;9.228;2023-05-16T23:25:06;10.50;99.60
72936;DHT22;61085;48.804;9.228;2023-05-16T23:27:32;10.50;99.70
72936;DHT22;61085;48.804;9.228;2023-05-16T23:29:57;10.50;99.90
72936;DHT22;61085;48.804;9.228;2023-05-16T23:32:23;10.40;99.90
72936;DHT22;61085;48.804;9.228;2023-05-16T23:34:49;10.30;99.90
72936;DHT22;61085;48.804;9.228;2023-05-16T23:37:14;10.40;99.90
72936;DHT22;61085;48.804;9.228;2023-05-16T23:39:41;10.30;99.90
72936;DHT22;61085;48.804;9.228;2023-05-16T23:42:06;10.30;99.90
72936;DHT22;61085;48.804;9.228;2023-05-16T23:44:32;10.20;99.90
72936;DHT22;61085;48.804;9.228;2023-05-16T23:46:59;10.00;99.90
72936;DHT22;61085;48.804;9.228;2023-05-16T23:49:24;10.20;99.90
72936;DHT22;61085;48.804;9.228;2023-05-16T23:51:50;10.10;99.90
72936;DHT22;61085;48.804;9.228;2023-05-16T23:54:16;10.10;99.90
72936;DHT22;61085;48.804;9.228;2023-05-16T23:56:41;10.10;99.90
72936;DHT22;61085;48.804;9.228;2023-05-16T23:59:07;10.10;99.90
